Time;durP1;ratioP1;P1;durP2;ratioP2;P2;SDS_P1;SDS_P2;PMS_P1;PMS_P2;Temp;Humidity;BMP_temperature;BMP_pressure;BME280_temperature;BME280_humidity;BME280_pressure;Samples;Min_cycle;Max_cycle;Signal;HPM_P1;HPM_P2
2023/05/25 00:00:15;;;;;;;7.20;4.50;;;12.30;99.90;;;;;;5067977;28;20253;-70
2023/05/25 00:02:43;;;;;;;8.23;4.60;;;12.20;99.90;;;;;;5068349;28;20231;-70
2023/05/25 00:05:10;;;;;;;8.27;4.80;;;12.20;99.90;;;;;;5068206;28;20200;-71
2023/05/25 00:07:37;;;;;;;5.57;4.53;;;12.20;99.90;;;;;;5068370;28;20732;-71
2023/05/25 00:10:05;;;;;;;9.97;5.27;;;12.20;99.90;;;;;;5067891;28;20227;-71
2023/05/25 00:12:35;;;;;;;6.27;5.43;;;12.20;99.90;;;;;;5067956;28;20327;-71
2023/05/25 00:15:02;;;;;;;8.43;5.77;;;12.20;99.90;;;;;;5068721;28;20784;-71
2023/05/25 00:17:30;;;;;;;8.87;5.47;;;12.20;99.90;;;;;;5068429;28;20286;-71
2023/05/25 00:20:01;;;;;;;7.87;4.87;;;12.20;99.90;;;;;;5068281;28;20216;-71
2023/05/25 00:22:28;;;;;;;8.23;5.63;;;12.20;99.90;;;;;;5067832;28;20245;-71
2023/05/25 00:24:55;;;;;;;6.93;4.90;;;12.20;99.90;;;;;;5048458;28;20212;-72
2023/05/25 00:27:23;;;;;;;7.47;4.90;;;12.20;99.90;;;;;;5048123;28;20204;-71
2023/05/25 00:29:51;;;;;;;9.67;4.90;;;12.10;99.90;;;;;;5047615;28;20286;-71
2023/05/25 00:32:19;;;;;;;9.20;4.73;;;12.10;99.90;;;;;;5061079;28;20310;-72
2023/05/25 00:34:47;;;;;;;7.87;4.80;;;12.10;99.90;;;;;;5068200;28;20247;-72
2023/05/25 00:37:14;;;;;;;6.20;4.50;;;12.00;99.90;;;;;;5068038;28;20207;-72
2023/05/25 00:39:41;;;;;;;6.33;4.97;;;12.00;99.90;;;;;;5067713;28;20207;-72
2023/05/25 00:42:08;;;;;;;5.60;4.10;;;12.10;99.90;;;;;;5067728;28;20282;-70
2023/05/25 00:44:35;;;;;;;6.87;4.60;;;12.00;99.90;;;;;;5067733;28;20243;-70
2023/05/25 00:47:04;;;;;;;7.27;4.83;;;11.90;99.90;;;;;;5067898;28;20286;-70
2023/05/25 00:49:34;;;;;;;7.07;4.60;;;11.90;99.90;;;;;;5066686;28;20298;-69
2023/05/25 00:52:01;;;;;;;4.97;4.10;;;11.90;99.90;;;;;;5068266;28;20237;-70
2023/05/25 00:54:28;;;;;;;11.63;5.20;;;11.90;99.90;;;;;;5067869;28;20203;-70
2023/05/25 00:57:01;;;;;;;6.40;5.20;;;11.90;99.90;;;;;;5068108;28;20706;-70
2023/05/25 00:59:34;;;;;;;9.17;4.87;;;11.90;99.90;;;;;;5067676;28;20286;-71
2023/05/25 01:02:06;;;;;;;7.10;4.80;;;11.80;99.90;;;;;;5068120;28;20196;-71
2023/05/25 01:04:35;;;;;;;7.90;4.30;;;11.80;99.90;;;;;;5068097;28;20875;-71
2023/05/25 01:07:04;;;;;;;6.80;4.83;;;11.80;99.90;;;;;;5067541;28;20203;-72
2023/05/25 01:09:34;;;;;;;9.20;4.30;;;11.80;99.90;;;;;;5068066;28;20297;-71
2023/05/25 01:12:03;;;;;;;7.70;4.70;;;11.80;99.90;;;;;;5067443;28;20227;-71
2023/05/25 01:14:31;;;;;;;8.70;4.80;;;11.70;99.90;;;;;;5067296;28;20203;-71
2023/05/25 01:16:58;;;;;;;5.10;4.60;;;11.70;99.90;;;;;;5066976;28;20693;-70
2023/05/25 01:19:27;;;;;;;5.13;4.37;;;11.70;99.90;;;;;;5067028;28;20625;-71
2023/05/25 01:22:02;;;;;;;6.53;4.30;;;11.70;99.90;;;;;;5067281;28;20215;-70
2023/05/25 01:24:35;;;;;;;5.00;4.50;;;11.70;99.90;;;;;;5067151;28;20205;-70
2023/05/25 01:27:07;;;;;;;6.23;4.37;;;11.70;99.90;;;;;;5066592;28;20253;-70
2023/05/25 01:29:35;;;;;;;7.27;4.60;;;11.70;99.90;;;;;;5066931;28;20249;-70
2023/05/25 01:32:04;;;;;;;7.00;4.50;;;11.70;99.90;;;;;;5066845;28;20821;-70
2023/05/25 01:34:32;;;;;;;6.40;4.50;;;11.70;99.90;;;;;;5067109;28;20299;-70
2023/05/25 01:37:00;;;;;;;7.03;5.10;;;11.70;99.90;;;;;;5067236;28;20290;-70
2023/05/25 01:39:27;;;;;;;5.90;4.50;;;11.60;99.90;;;;;;5066922;28;20797;-70
2023/05/25 01:41:54;;;;;;;4.50;4.10;;;11.60;99.90;;;;;;5067058;28;20227;-71
2023/05/25 01:44:21;;;;;;;5.93;4.53;;;11.50;99.90;;;;;;5067102;28;20291;-70
2023/05/25 01:46:53;;;;;;;6.77;4.73;;;11.50;99.90;;;;;;5067018;28;20231;-70
2023/05/25 01:49:27;;;;;;;7.43;4.47;;;11.50;99.90;;;;;;5066940;28;20196;-70
2023/05/25 01:52:03;;;;;;;6.97;4.80;;;11.50;99.90;;;;;;5066501;28;20852;-70
2023/05/25 01:54:37;;;;;;;6.73;4.53;;;11.50;99.90;;;;;;5066896;28;20195;-70
2023/05/25 01:57:08;;;;;;;6.43;5.03;;;11.50;99.90;;;;;;5066526;28;20610;-70
2023/05/25 01:59:37;;;;;;;4.80;4.37;;;11.50;99.90;;;;;;5065838;28;20642;-70
2023/05/25 02:02:05;;;;;;;5.70;4.57;;;11.40;99.90;;;;;;5066365;28;20298;-70
2023/05/25 02:04:33;;;;;;;7.17;5.13;;;11.40;99.90;;;;;;5066320;28;20291;-70
2023/05/25 02:07:00;;;;;;;7.73;4.67;;;11.40;99.90;;;;;;5066102;28;20661;-70
2023/05/25 02:09:27;;;;;;;7.53;5.10;;;11.40;99.90;;;;;;5065776;28;20302;-70
2023/05/25 02:11:55;;;;;;;5.47;4.73;;;11.40;99.90;;;;;;5065958;28;20732;-70
2023/05/25 02:14:22;;;;;;;7.20;4.77;;;11.50;99.90;;;;;;5066540;28;20302;-70
2023/05/25 02:16:49;;;;;;;5.73;5.07;;;11.50;99.90;;;;;;5066140;28;20321;-71
2023/05/25 02:19:16;;;;;;;7.33;4.63;;;11.50;99.90;;;;;;5066103;28;20680;-71
2023/05/25 02:21:43;;;;;;;9.73;5.63;;;11.50;99.90;;;;;;5066073;28;20203;-71
2023/05/25 02:24:10;;;;;;;6.30;5.20;;;11.50;99.90;;;;;;5060416;28;20299;-71
2023/05/25 02:26:38;;;;;;;5.73;4.93;;;11.40;99.90;;;;;;5065932;28;20736;-71
2023/05/25 02:29:06;;;;;;;5.13;4.67;;;11.40;99.90;;;;;;5066487;28;20267;-71
2023/05/25 02:31:33;;;;;;;5.20;4.70;;;11.40;99.90;;;;;;5065774;28;20707;-71
2023/05/25 02:34:00;;;;;;;7.00;5.20;;;11.30;99.90;;;;;;5066392;28;20286;-71
2023/05/25 02:36:27;;;;;;;7.70;5.03;;;11.30;99.90;;;;;;5066050;28;20226;-71
2023/05/25 02:38:54;;;;;;;4.47;4.17;;;11.30;99.90;;;;;;5066198;28;20314;-71
2023/05/25 02:41:23;;;;;;;8.17;4.90;;;11.20;99.90;;;;;;5065712;28;20743;-71
2023/05/25 02:43:50;;;;;;;5.30;4.80;;;11.20;99.90;;;;;;5065728;28;20265;-71
2023/05/25 02:46:18;;;;;;;9.63;5.07;;;11.20;99.90;;;;;;5065724;28;20218;-71
2023/05/25 02:48:45;;;;;;;8.17;5.20;;;11.20;99.90;;;;;;5065621;28;20717;-70
2023/05/25 02:51:12;;;;;;;5.40;4.90;;;11.20;99.90;;;;;;5065540;28;20302;-70
2023/05/25 02:53:39;;;;;;;5.97;4.77;;;11.20;99.90;;;;;;5065294;28;20816;-70
2023/05/25 02:56:09;;;;;;;7.80;5.30;;;11.10;99.90;;;;;;5065013;28;20708;-71
2023/05/25 02:58:36;;;;;;;6.27;5.23;;;11.10;99.90;;;;;;5065756;28;20680;-69
2023/05/25 03:01:04;;;;;;;8.07;4.73;;;11.10;99.90;;;;;;5065507;28;20689;-69
2023/05/25 03:03:32;;;;;;;5.90;4.83;;;11.10;99.90;;;;;;5066040;28;20268;-69
2023/05/25 03:05:59;;;;;;;6.83;5.50;;;11.10;99.90;;;;;;5064918;28;21072;-71
2023/05/25 03:08:26;;;;;;;7.20;4.70;;;11.10;99.90;;;;;;5059839;28;20199;-70
2023/05/25 03:10:53;;;;;;;7.73;5.67;;;11.00;99.90;;;;;;5061756;28;20212;-70
2023/05/25 03:13:19;;;;;;;7.40;5.17;;;11.00;99.90;;;;;;5059814;28;20330;-70
2023/05/25 03:15:46;;;;;;;6.03;4.97;;;11.00;99.90;;;;;;5061666;28;20234;-70
2023/05/25 03:18:13;;;;;;;5.23;4.83;;;11.00;99.90;;;;;;5068196;28;20214;-69
2023/05/25 03:20:42;;;;;;;8.20;5.53;;;11.00;99.90;;;;;;5067637;28;20665;-69
2023/05/25 03:23:09;;;;;;;6.67;5.60;;;11.00;99.90;;;;;;5067972;28;20204;-69
2023/05/25 03:25:36;;;;;;;6.90;5.27;;;11.00;99.90;;;;;;5055501;28;20291;-69
2023/05/25 03:28:03;;;;;;;7.47;6.00;;;10.90;99.90;;;;;;5067472;28;20237;-69
2023/05/25 03:30:30;;;;;;;8.70;5.63;;;10.90;99.90;;;;;;5066987;28;20310;-69
2023/05/25 03:32:57;;;;;;;8.63;5.67;;;10.80;99.90;;;;;;5060695;28;20204;-69
2023/05/25 03:35:24;;;;;;;6.20;5.60;;;10.80;99.90;;;;;;5059084;28;20243;-69
2023/05/25 03:37:52;;;;;;;7.90;5.43;;;10.80;99.90;;;;;;5067726;28;20298;-70
2023/05/25 03:40:20;;;;;;;8.37;5.50;;;10.80;99.90;;;;;;5067574;28;20689;-69
2023/05/25 03:42:49;;;;;;;7.93;5.70;;;10.80;99.90;;;;;;5067181;28;20297;-70
2023/05/25 03:45:16;;;;;;;6.30;5.13;;;10.70;99.90;;;;;;5067001;28;20199;-69
2023/05/25 03:47:44;;;;;;;9.00;5.90;;;10.60;99.90;;;;;;5067081;28;20234;-69
2023/05/25 03:50:11;;;;;;;6.70;5.67;;;10.50;99.90;;;;;;5066807;28;20215;-69
2023/05/25 03:52:38;;;;;;;12.67;6.23;;;10.50;99.90;;;;;;5067363;28;20469;-69
2023/05/25 03:55:07;;;;;;;7.87;5.90;;;10.40;99.90;;;;;;5067560;28;20318;-69
2023/05/25 03:57:34;;;;;;;6.47;5.40;;;10.50;99.90;;;;;;5058340;28;20244;-70
2023/05/25 04:00:01;;;;;;;6.67;5.87;;;10.50;99.90;;;;;;5063309;28;20203;-70
2023/05/25 04:02:28;;;;;;;5.93;5.33;;;10.50;99.90;;;;;;5062498;28;20307;-70
2023/05/25 04:04:55;;;;;;;8.97;5.40;;;10.60;99.90;;;;;;5067689;28;20319;-70
2023/05/25 04:07:22;;;;;;;7.20;5.90;;;10.50;99.90;;;;;;5066003;28;20580;-69
2023/05/25 04:09:49;;;;;;;6.97;5.00;;;10.40;99.90;;;;;;5067384;28;20259;-69
2023/05/25 04:12:17;;;;;;;6.77;5.90;;;10.40;99.90;;;;;;5067233;28;20227;-69
2023/05/25 04:14:45;;;;;;;6.17;5.50;;;10.50;99.90;;;;;;5061188;28;20206;-70
2023/05/25 04:17:12;;;;;;;7.63;5.93;;;10.50;99.90;;;;;;5064864;28;20651;-69
2023/05/25 04:19:38;;;;;;;5.83;5.33;;;10.50;99.90;;;;;;5067585;28;20208;-69
2023/05/25 04:22:05;;;;;;;6.10;5.13;;;10.50;99.90;;;;;;5049799;28;20259;-70
2023/05/25 04:24:33;;;;;;;5.80;5.30;;;10.50;99.90;;;;;;5063934;28;20231;-69
2023/05/25 04:27:01;;;;;;;8.67;5.83;;;10.60;99.90;;;;;;5051890;28;20226;-69
2023/05/25 04:29:30;;;;;;;8.13;5.10;;;10.70;99.90;;;;;;5059020;28;20345;-70
2023/05/25 04:31:57;;;;;;;6.03;5.43;;;10.70;99.90;;;;;;5055587;28;20219;-69
2023/05/25 04:34:25;;;;;;;6.20;5.60;;;10.80;99.90;;;;;;5064795;28;20318;-70
2023/05/25 04:36:52;;;;;;;8.27;6.17;;;10.70;99.90;;;;;;5057451;28;20307;-69
2023/05/25 04:39:19;;;;;;;7.87;6.13;;;10.70;99.90;;;;;;5059148;28;20201;-70
2023/05/25 04:41:47;;;;;;;7.37;5.70;;;10.70;99.90;;;;;;5061913;28;20286;-69
2023/05/25 04:44:14;;;;;;;6.77;6.10;;;10.80;99.90;;;;;;5067270;28;20280;-69
2023/05/25 04:46:43;;;;;;;7.67;5.80;;;10.80;99.90;;;;;;5066612;28;20283;-70
2023/05/25 04:49:12;;;;;;;9.30;6.23;;;10.90;99.90;;;;;;5066984;28;20736;-69
2023/05/25 04:51:38;;;;;;;7.40;5.73;;;10.90;99.90;;;;;;5066862;28;20207;-69
2023/05/25 04:54:05;;;;;;;8.77;5.83;;;10.90;99.90;;;;;;5067002;28;20223;-70
2023/05/25 04:56:32;;;;;;;9.17;5.90;;;10.90;99.90;;;;;;5064200;28;20588;-69
2023/05/25 04:58:59;;;;;;;8.70;6.70;;;11.00;99.90;;;;;;5061176;28;20245;-69
2023/05/25 05:01:27;;;;;;;7.60;6.07;;;11.00;99.90;;;;;;5066342;28;20202;-69
2023/05/25 05:03:56;;;;;;;11.27;7.27;;;11.00;99.90;;;;;;5056865;28;20288;-69
2023/05/25 05:06:24;;;;;;;11.60;6.97;;;11.00;99.90;;;;;;5064189;28;20223;-69
2023/05/25 05:08:51;;;;;;;10.80;6.27;;;11.00;99.90;;;;;;5063860;28;20196;-69
2023/05/25 05:11:18;;;;;;;10.83;6.23;;;10.90;99.90;;;;;;5066533;28;20294;-69
2023/05/25 05:13:45;;;;;;;8.07;6.87;;;10.90;99.90;;;;;;5061412;28;20240;-69
2023/05/25 05:16:11;;;;;;;9.03;6.00;;;11.00;99.90;;;;;;5057876;28;20227;-69
2023/05/25 05:18:38;;;;;;;10.13;7.03;;;11.10;99.90;;;;;;5059818;28;20522;-69
2023/05/25 05:21:07;;;;;;;12.40;8.00;;;11.20;99.90;;;;;;5062360;28;20200;-69
2023/05/25 05:23:34;;;;;;;13.70;7.53;;;11.20;99.90;;;;;;5061871;28;20738;-69
2023/05/25 05:26:03;;;;;;;13.90;7.43;;;11.20;99.90;;;;;;5055519;28;20210;-69
2023/05/25 05:28:30;;;;;;;15.80;7.80;;;11.20;99.90;;;;;;5063498;28;20208;-69
2023/05/25 05:30:57;;;;;;;14.23;7.97;;;11.20;99.90;;;;;;5065861;28;20722;-69
2023/05/25 05:33:24;;;;;;;9.17;7.20;;;11.20;99.90;;;;;;5066748;28;20200;-69
2023/05/25 05:35:52;;;;;;;11.13;7.37;;;11.30;99.90;;;;;;5066636;28;20303;-70
2023/05/25 05:38:20;;;;;;;11.47;7.07;;;11.30;99.90;;;;;;5066632;28;20203;-69
2023/05/25 05:40:47;;;;;;;8.97;7.40;;;11.30;99.90;;;;;;5066478;28;20760;-69
2023/05/25 05:43:14;;;;;;;14.17;8.07;;;11.40;99.90;;;;;;5066613;28;20235;-69
2023/05/25 05:45:41;;;;;;;12.07;7.73;;;11.50;99.90;;;;;;5066420;28;20207;-69
2023/05/25 05:48:09;;;;;;;13.03;7.53;;;11.50;99.90;;;;;;5066477;28;20310;-69
2023/05/25 05:50:36;;;;;;;13.03;8.00;;;11.50;99.90;;;;;;5066273;28;20231;-69
2023/05/25 05:53:03;;;;;;;12.67;8.23;;;11.60;99.90;;;;;;5066606;28;20286;-69
2023/05/25 05:55:32;;;;;;;11.23;8.00;;;11.70;99.90;;;;;;5064377;28;20291;-69
2023/05/25 05:57:59;;;;;;;15.60;8.87;;;11.70;99.90;;;;;;5061352;28;20709;-69
2023/05/25 06:00:26;;;;;;;16.00;8.20;;;11.80;99.90;;;;;;5061089;28;20655;-70
2023/05/25 06:02:53;;;;;;;15.37;9.00;;;11.80;99.90;;;;;;5052489;28;20560;-69
2023/05/25 06:05:20;;;;;;;16.43;8.80;;;11.80;99.90;;;;;;5059695;28;20203;-69
2023/05/25 06:07:48;;;;;;;13.37;8.83;;;11.90;99.90;;;;;;5063206;28;20207;-69
2023/05/25 06:10:15;;;;;;;13.70;8.30;;;12.00;99.90;;;;;;5063690;28;20210;-69
2023/05/25 06:12:43;;;;;;;15.47;9.20;;;12.00;99.90;;;;;;5056359;28;20251;-69
2023/05/25 06:15:11;;;;;;;15.10;9.03;;;12.10;99.90;;;;;;5052928;28;20924;-69
2023/05/25 06:17:38;;;;;;;14.70;8.10;;;12.10;99.90;;;;;;5064758;28;20235;-69
2023/05/25 06:20:06;;;;;;;15.00;8.43;;;12.20;99.90;;;;;;5058545;28;20671;-70
2023/05/25 06:22:33;;;;;;;18.73;9.53;;;12.20;99.90;;;;;;5058420;28;20201;-69
2023/05/25 06:25:00;;;;;;;18.40;8.97;;;12.30;99.90;;;;;;5065267;28;20808;-69
2023/05/25 06:27:27;;;;;;;16.07;8.80;;;12.40;99.90;;;;;;5064756;28;20219;-69
2023/05/25 06:29:55;;;;;;;16.60;9.60;;;12.40;99.90;;;;;;5058840;28;20223;-70
2023/05/25 06:32:22;;;;;;;15.60;9.30;;;12.40;99.90;;;;;;5058112;28;20286;-70
2023/05/25 06:34:49;;;;;;;13.57;8.93;;;12.50;99.90;;;;;;5059489;28;20236;-69
2023/05/25 06:37:16;;;;;;;13.50;9.07;;;12.50;99.90;;;;;;5057327;28;20799;-69
2023/05/25 06:39:43;;;;;;;17.07;9.40;;;12.60;99.90;;;;;;5065212;28;20206;-69
2023/05/25 06:42:10;;;;;;;13.30;8.93;;;12.60;99.90;;;;;;5058910;28;20261;-70
2023/05/25 06:44:37;;;;;;;11.97;8.70;;;12.70;99.90;;;;;;5054561;28;20195;-69
2023/05/25 06:47:06;;;;;;;17.37;8.97;;;12.70;99.90;;;;;;5057543;28;20200;-70
2023/05/25 06:49:33;;;;;;;12.90;8.73;;;12.80;99.90;;;;;;5059012;28;20203;-70
2023/05/25 06:52:00;;;;;;;18.53;10.17;;;12.90;99.90;;;;;;5060614;28;20887;-70
2023/05/25 06:54:27;;;;;;;16.50;9.77;;;13.00;99.90;;;;;;5060630;28;20229;-69
2023/05/25 06:56:54;;;;;;;16.93;9.10;;;13.00;99.90;;;;;;5064975;28;20581;-70
2023/05/25 06:59:21;;;;;;;16.13;9.47;;;13.10;99.90;;;;;;5064499;28;20287;-70
2023/05/25 07:01:48;;;;;;;16.00;9.30;;;13.20;99.90;;;;;;5058769;28;21120;-70
2023/05/25 07:04:16;;;;;;;17.90;8.93;;;13.30;99.90;;;;;;5061621;28;20295;-70
2023/05/25 07:06:43;;;;;;;18.90;8.17;;;13.30;99.90;;;;;;5063211;28;20211;-70
2023/05/25 07:09:10;;;;;;;16.97;8.23;;;13.30;99.90;;;;;;5063208;28;20316;-69
2023/05/25 07:11:37;;;;;;;13.20;8.90;;;13.40;99.90;;;;;;5055214;28;20208;-70
2023/05/25 07:14:04;;;;;;;15.20;8.20;;;13.50;99.90;;;;;;5062967;28;20231;-69
2023/05/25 07:16:31;;;;;;;15.47;8.50;;;13.60;99.90;;;;;;5052038;28;20294;-70
2023/05/25 07:18:58;;;;;;;15.33;8.10;;;13.70;99.90;;;;;;5052083;28;20561;-70
2023/05/25 07:21:26;;;;;;;17.97;7.77;;;13.80;99.90;;;;;;5062813;28;20314;-70
2023/05/25 07:23:53;;;;;;;12.53;7.70;;;13.90;99.90;;;;;;5064413;28;20291;-69
2023/05/25 07:26:21;;;;;;;13.37;7.47;;;14.00;99.90;;;;;;5063249;28;20298;-70
2023/05/25 07:28:48;;;;;;;16.37;8.00;;;14.00;99.90;;;;;;5060691;28;20227;-69
2023/05/25 07:31:16;;;;;;;13.97;7.03;;;14.20;99.90;;;;;;5062750;28;20283;-69
2023/05/25 07:33:43;;;;;;;13.63;6.43;;;14.20;99.90;;;;;;5057560;28;20211;-70
2023/05/25 07:36:11;;;;;;;13.30;7.77;;;14.20;99.90;;;;;;5054572;28;20247;-70
2023/05/25 07:38:39;;;;;;;11.20;6.63;;;14.30;99.90;;;;;;5047050;28;20781;-70
2023/05/25 07:41:06;;;;;;;14.70;6.90;;;14.40;99.90;;;;;;5050172;28;20205;-73
2023/05/25 07:43:33;;;;;;;15.43;7.53;;;14.40;99.90;;;;;;5052964;28;20287;-70
2023/05/25 07:46:01;;;;;;;12.87;7.40;;;14.40;99.90;;;;;;5059899;28;20712;-70
2023/05/25 07:48:28;;;;;;;11.33;6.77;;;14.50;99.90;;;;;;5060876;28;20211;-70
2023/05/25 07:50:55;;;;;;;15.27;7.23;;;14.50;99.90;;;;;;5064840;28;20215;-70
2023/05/25 07:53:22;;;;;;;10.20;6.80;;;14.50;99.90;;;;;;5064180;28;20569;-70
2023/05/25 07:55:50;;;;;;;13.13;7.43;;;14.50;99.90;;;;;;5064980;28;20342;-70
2023/05/25 07:58:17;;;;;;;13.23;7.33;;;14.60;99.90;;;;;;5065736;28;20223;-70
2023/05/25 08:00:44;;;;;;;15.17;6.63;;;14.70;99.90;;;;;;5068290;28;20217;-70
2023/05/25 08:03:11;;;;;;;13.20;7.40;;;14.80;99.90;;;;;;5068286;28;20340;-70
2023/05/25 08:05:38;;;;;;;12.30;6.60;;;14.70;99.90;;;;;;5060008;28;20208;-70
2023/05/25 08:08:05;;;;;;;10.70;6.73;;;14.70;99.90;;;;;;5066709;28;20260;-70
2023/05/25 08:10:32;;;;;;;11.93;6.07;;;14.70;99.90;;;;;;5067606;28;20282;-70
2023/05/25 08:13:00;;;;;;;15.27;6.27;;;14.80;99.90;;;;;;5067622;28;20326;-70
2023/05/25 08:15:30;;;;;;;13.43;6.20;;;14.80;99.90;;;;;;5067959;28;20295;-70
2023/05/25 08:17:57;;;;;;;11.73;6.13;;;14.90;99.90;;;;;;5067836;28;20848;-70
2023/05/25 08:20:24;;;;;;;11.03;7.30;;;15.00;99.90;;;;;;5068057;28;20235;-70
2023/05/25 08:22:53;;;;;;;13.53;7.30;;;15.10;99.90;;;;;;5067776;28;20196;-70
2023/05/25 08:25:20;;;;;;;11.37;6.07;;;15.20;99.90;;;;;;5067709;28;20211;-70
2023/05/25 08:27:47;;;;;;;11.33;5.67;;;15.30;99.90;;;;;;5067362;28;20310;-70
2023/05/25 08:30:15;;;;;;;14.17;5.10;;;15.30;99.90;;;;;;5067834;28;20302;-70
2023/05/25 08:32:42;;;;;;;10.03;5.83;;;15.40;99.90;;;;;;5067666;28;20203;-70
2023/05/25 08:35:09;;;;;;;12.43;6.47;;;15.40;99.90;;;;;;5067923;28;20715;-70
2023/05/25 08:37:37;;;;;;;8.10;5.27;;;15.50;99.90;;;;;;5068228;28;20231;-70
2023/05/25 08:40:06;;;;;;;15.00;5.47;;;15.50;99.90;;;;;;5067814;28;20616;-70
2023/05/25 08:42:33;;;;;;;10.13;5.70;;;15.50;99.90;;;;;;5067927;28;20203;-70
2023/05/25 08:45:01;;;;;;;8.00;4.93;;;15.60;99.90;;;;;;5068183;28;20318;-70
2023/05/25 08:47:33;;;;;;;9.63;5.33;;;15.70;99.90;;;;;;5067879;28;20226;-70
2023/05/25 08:50:02;;;;;;;10.43;5.80;;;15.70;99.90;;;;;;5053688;28;20188;-71
2023/05/25 08:52:33;;;;;;;10.10;6.30;;;15.70;99.90;;;;;;5062015;28;20196;-70
2023/05/25 08:55:04;;;;;;;7.93;5.87;;;15.80;99.90;;;;;;5062026;28;20569;-70
2023/05/25 08:57:44;;;;;;;13.67;9.03;;;15.80;99.90;;;;;;5066094;28;20211;-71
2023/05/25 09:00:15;;;;;;;11.20;7.77;;;15.90;99.90;;;;;;5065739;28;20278;-70
2023/05/25 09:02:50;;;;;;;9.17;7.80;;;15.90;99.90;;;;;;5066811;28;20295;-70
2023/05/25 09:05:18;;;;;;;11.67;8.23;;;15.70;99.90;;;;;;5060794;28;20275;-70
2023/05/25 09:07:46;;;;;;;9.77;7.77;;;15.60;99.90;;;;;;5053335;28;20214;-70
2023/05/25 09:10:14;;;;;;;15.20;9.27;;;15.60;99.90;;;;;;5065495;28;20690;-71
2023/05/25 09:12:43;;;;;;;11.77;8.13;;;15.60;99.90;;;;;;5063607;28;20711;-70
2023/05/25 09:15:11;;;;;;;14.43;9.03;;;15.70;99.90;;;;;;5066295;28;20211;-70
2023/05/25 09:17:40;;;;;;;16.07;8.90;;;15.80;99.90;;;;;;5066120;28;20709;-70
2023/05/25 09:20:10;;;;;;;10.47;8.17;;;15.80;99.90;;;;;;5066567;28;20219;-70
2023/05/25 09:22:37;;;;;;;11.87;8.27;;;15.80;99.90;;;;;;5066582;28;20203;-70
2023/05/25 09:25:07;;;;;;;9.90;7.00;;;15.90;99.90;;;;;;5066328;28;20290;-70
2023/05/25 09:27:36;;;;;;;11.77;7.53;;;15.90;99.90;;;;;;5065774;28;20682;-70
2023/05/25 09:30:03;;;;;;;11.23;7.50;;;16.00;99.90;;;;;;5059781;28;20564;-70
2023/05/25 09:32:30;;;;;;;10.60;7.07;;;16.00;99.90;;;;;;5064981;28;20249;-70
2023/05/25 09:35:08;;;;;;;14.27;7.50;;;16.00;99.90;;;;;;5060157;28;20195;-70
2023/05/25 09:37:36;;;;;;;10.67;6.67;;;16.10;99.90;;;;;;5060395;28;20262;-70
2023/05/25 09:40:04;;;;;;;13.20;6.80;;;16.10;99.90;;;;;;5056497;28;20195;-70
2023/05/25 09:42:31;;;;;;;8.97;7.40;;;16.20;99.90;;;;;;5064169;28;20200;-70
2023/05/25 09:44:58;;;;;;;9.50;6.73;;;16.30;99.90;;;;;;5065716;28;20322;-70
2023/05/25 09:47:26;;;;;;;10.83;7.33;;;16.30;99.90;;;;;;5064052;28;20581;-70
2023/05/25 09:49:53;;;;;;;10.70;8.37;;;16.30;99.90;;;;;;5062910;28;20200;-70
2023/05/25 09:52:21;;;;;;;9.37;6.87;;;16.40;99.90;;;;;;5054601;28;20227;-70
2023/05/25 09:54:49;;;;;;;9.40;6.87;;;16.30;99.90;;;;;;5065640;28;20208;-70
2023/05/25 09:57:17;;;;;;;13.37;8.17;;;16.50;99.90;;;;;;5065456;28;20298;-70
2023/05/25 09:59:44;;;;;;;14.97;8.07;;;16.60;99.90;;;;;;5065789;28;20207;-71
2023/05/25 10:02:11;;;;;;;11.60;8.30;;;16.70;99.90;;;;;;5063224;28;20210;-70
2023/05/25 10:04:38;;;;;;;11.03;8.33;;;16.70;99.90;;;;;;5056511;28;20298;-70
2023/05/25 10:07:06;;;;;;;8.07;6.77;;;16.80;99.90;;;;;;5065805;28;20535;-70
2023/05/25 10:09:39;;;;;;;12.03;7.60;;;16.90;99.90;;;;;;5065191;28;20664;-70
2023/05/25 10:12:07;;;;;;;9.00;7.47;;;16.90;99.90;;;;;;5057482;28;20792;-70
2023/05/25 10:14:37;;;;;;;11.93;6.60;;;16.90;99.90;;;;;;5053902;28;20246;-71
2023/05/25 10:17:06;;;;;;;8.20;7.00;;;16.90;99.90;;;;;;5063158;28;20207;-70
2023/05/25 10:19:40;;;;;;;15.33;7.50;;;17.00;99.90;;;;;;5061377;28;20641;-70
2023/05/25 10:22:13;;;;;;;10.03;7.13;;;17.10;99.90;;;;;;5062737;28;20598;-70
2023/05/25 10:24:46;;;;;;;11.83;7.40;;;17.10;99.90;;;;;;5062775;28;20188;-70
2023/05/25 10:27:19;;;;;;;9.63;6.40;;;17.20;99.90;;;;;;5064938;28;20195;-69
2023/05/25 10:29:48;;;;;;;9.63;6.17;;;17.20;99.90;;;;;;5063084;28;20240;-71
2023/05/25 10:32:17;;;;;;;9.27;6.73;;;17.30;99.90;;;;;;5062691;28;20204;-70
2023/05/25 10:34:44;;;;;;;8.00;6.27;;;17.20;99.90;;;;;;5059188;28;20319;-69
2023/05/25 10:37:12;;;;;;;7.63;6.47;;;17.20;99.90;;;;;;5054205;28;20602;-69
2023/05/25 10:39:42;;;;;;;6.57;5.57;;;17.20;99.90;;;;;;5064701;28;20253;-70
2023/05/25 10:42:11;;;;;;;10.90;6.23;;;17.20;99.90;;;;;;5059626;28;20206;-69
2023/05/25 10:44:40;;;;;;;9.60;6.90;;;17.30;99.90;;;;;;5050137;28;20196;-69
2023/05/25 10:47:07;;;;;;;7.17;5.93;;;17.40;99.90;;;;;;5062973;28;20203;-71
2023/05/25 10:49:42;;;;;;;8.97;6.80;;;17.60;99.90;;;;;;5054476;28;20227;-70
2023/05/25 10:52:09;;;;;;;9.50;5.93;;;17.80;99.90;;;;;;5063251;28;20306;-70
2023/05/25 10:54:38;;;;;;;9.37;7.47;;;17.90;99.90;;;;;;5050639;28;20315;-70
2023/05/25 10:57:11;;;;;;;9.30;7.17;;;17.90;99.90;;;;;;5054237;28;20199;-70
2023/05/25 10:59:41;;;;;;;7.60;5.83;;;17.90;99.90;;;;;;5057187;28;20215;-68
2023/05/25 11:02:08;;;;;;;9.57;6.50;;;18.10;99.90;;;;;;5060112;28;20211;-69
2023/05/25 11:04:36;;;;;;;7.43;5.87;;;18.20;99.90;;;;;;5057383;28;20861;-69
2023/05/25 11:07:13;;;;;;;8.33;6.10;;;18.10;99.90;;;;;;5064641;28;20212;-70
2023/05/25 11:09:44;;;;;;;7.20;6.03;;;18.10;99.90;;;;;;5064532;28;20679;-70
2023/05/25 11:12:21;;;;;;;9.23;6.27;;;18.20;99.90;;;;;;5049611;28;20714;-69
2023/05/25 11:15:13;;;;;;;8.60;6.40;;;18.40;99.90;;;;;;5061865;28;20872;-70
2023/05/25 11:18:00;;;;;;;11.67;7.00;;;18.50;99.90;;;;;;5060734;28;20203;-68
2023/05/25 11:20:28;;;;;;;7.43;5.63;;;18.60;99.90;;;;;;5057401;28;20245;-70
2023/05/25 11:22:58;;;;;;;9.03;5.73;;;18.70;99.90;;;;;;5061194;28;20208;-69
2023/05/25 11:25:39;;;;;;;9.03;5.30;;;18.80;99.90;;;;;;5058588;28;20214;-69
2023/05/25 11:28:10;;;;;;;11.20;6.17;;;19.00;99.90;;;;;;5061248;28;20333;-69
2023/05/25 11:30:39;;;;;;;10.40;6.57;;;19.10;99.90;;;;;;5064200;28;20589;-69
2023/05/25 11:33:07;;;;;;;8.63;5.83;;;19.10;99.90;;;;;;5064269;28;20203;-69
2023/05/25 11:35:36;;;;;;;8.23;5.80;;;19.20;99.90;;;;;;5056973;28;20206;-69
2023/05/25 11:38:06;;;;;;;10.70;6.70;;;19.40;99.90;;;;;;5054888;28;20238;-69
2023/05/25 11:40:33;;;;;;;8.07;6.10;;;19.50;99.90;;;;;;5061926;28;20200;-69
2023/05/25 11:43:02;;;;;;;8.73;5.20;;;19.60;99.90;;;;;;5057457;28;20257;-70
2023/05/25 11:45:33;;;;;;;8.53;5.70;;;19.60;99.90;;;;;;5063976;28;20200;-69
2023/05/25 11:48:00;;;;;;;6.90;5.60;;;19.50;99.90;;;;;;5068234;28;20203;-70
2023/05/25 11:50:27;;;;;;;8.70;4.97;;;19.40;99.90;;;;;;5067681;28;20208;-69
2023/05/25 11:52:54;;;;;;;9.17;4.77;;;19.50;99.90;;;;;;5068455;28;20563;-69
2023/05/25 11:55:22;;;;;;;7.93;5.10;;;19.40;99.90;;;;;;5067028;28;20211;-70
2023/05/25 11:57:56;;;;;;;8.87;4.97;;;19.50;99.90;;;;;;5068267;28;20289;-69
2023/05/25 12:00:27;;;;;;;9.53;5.67;;;19.70;99.90;;;;;;5060422;28;20813;-70
2023/05/25 12:02:56;;;;;;;13.13;7.80;;;19.90;99.90;;;;;;5068343;28;20212;-70
2023/05/25 12:05:23;;;;;;;10.23;7.33;;;20.20;99.90;;;;;;5067973;28;20666;-70
2023/05/25 12:07:50;;;;;;;11.47;7.83;;;20.00;99.90;;;;;;5067844;28;20246;-69
2023/05/25 12:10:17;;;;;;;12.50;7.40;;;19.80;99.90;;;;;;5065207;28;20842;-70
2023/05/25 12:12:45;;;;;;;11.73;8.03;;;19.80;99.90;;;;;;5067639;28;20262;-70
2023/05/25 12:15:14;;;;;;;13.90;8.40;;;19.70;99.90;;;;;;5065663;28;20290;-70
2023/05/25 12:17:42;;;;;;;12.03;8.57;;;19.60;99.90;;;;;;5059278;28;20291;-69
2023/05/25 12:20:12;;;;;;;12.87;9.70;;;19.50;99.90;;;;;;5051993;28;20227;-70
2023/05/25 12:22:39;;;;;;;15.00;8.70;;;19.40;99.90;;;;;;5053987;28;20224;-69
2023/05/25 12:25:09;;;;;;;11.13;8.10;;;19.20;99.90;;;;;;5067829;28;20227;-68
2023/05/25 12:27:36;;;;;;;11.17;8.50;;;19.30;99.90;;;;;;5064143;28;20232;-74
2023/05/25 12:30:04;;;;;;;14.23;8.73;;;19.40;99.90;;;;;;5062624;28;20210;-71
2023/05/25 12:32:31;;;;;;;10.37;7.93;;;19.20;99.90;;;;;;5067924;28;20261;-71
2023/05/25 12:35:06;;;;;;;12.57;7.87;;;19.20;99.90;;;;;;5068340;28;20211;-71
2023/05/25 12:37:34;;;;;;;13.50;6.93;;;19.30;99.90;;;;;;5065790;28;20257;-70
2023/05/25 12:40:03;;;;;;;11.67;8.03;;;19.40;99.90;;;;;;5068381;28;20314;-71
2023/05/25 12:42:31;;;;;;;12.30;7.47;;;19.30;99.90;;;;;;5067919;28;20211;-71
2023/05/25 12:45:00;;;;;;;8.93;7.63;;;19.40;99.90;;;;;;5066817;28;20294;-71
2023/05/25 12:47:29;;;;;;;8.13;7.10;;;19.80;99.90;;;;;;5070272;28;20208;-71